This site, now in its 22nd season, is a labour of love and fun from one of Ottawa's most avid time trialists and number crunchers. It adheres to and is permitted by the laws of Canada, promotes the objectives of every bicycle club whose results are shown, and is donated free of charge by myself for your enjoyment and usage. If you would like results from series you ride in to be shown here, give me (celia@drmath.ca) a shout!
NOTE that this site had to be quickly moved to a new server with a new version of Perl. Unfortunately the way of interacting with the web form has changed, so I'll have to do some reprogramming to get the buttons and search boxes working. Meanwhile the links work fine and you can always add query specifications into the URL! :-)


Index Page
ATT OTT WTT AATT CFCTT VVVTT
Help resultformat:
Case-sensitive

OBC Open TT Series - 2012-Jul-26 - 15km (Rockliffe Pkwy) (EvtFactor = 0.9549)

Ottawa Weather (18:00): Cloudy. Temperature: 19C, Humidity: 91%, Dew Point: 18C, Wind: NE 7km/h, Pressure: 100.4kPa, Vis: 10km, Humidex: *.
Ottawa Weather (19:00): Mostly Cloudy. Temperature: 20C, Humidity: 89%, Dew Point: 18C, Wind: NNE 9km/h, Pressure: 100.4kPa, Vis: 10km, Humidex: *.
Ottawa Weather (20:00): Mostly Cloudy. Temperature: 19C, Humidity: 88%, Dew Point: 17C, Wind: NE 6km/h, Pressure: 100.4kPa, Vis: 10km, Humidex: *.

With low air pressure (100.4kPa at the Ottawa MacDonald-Cartier air port) and single digit wind speed, excellent times were expected tonight. The fastest ride of the evening was from the team of Vet C Jon Gee, Cadet Jeremie Lacasse and Senior Brian Trafford, and Jon joked beforehand that he was riding in this team to have a chance at beating his Cadet son Derek Gee. Well, three against one, they did it with the team doing 19:20, the best team time yet this year. Derek came in second fastest with a time of 19:40, a new personal best, and only 2 seconds off of the Cadet Male 15km record of 19:38 which was set by Alex Cataford in his second year as a cadet. Derek is only in his first year as a Cadet, so he is expected to bring this record down significantly this year or next. At the other end of the age scale, Veteran E (70-79 years old) year bests were set for both genders by Hermann Kerkhoff (23:25) and Mary Ajersch (26:43), though both of them had performance ratios of less than .85 relative to the Vet E category bests that they set in earlier years (25:12 for VEF set on 2011-Aug-30 and 22:10 for VEM. Concerning the rest of us, 29 out of 66 people improved or equaled their previous season best with Alex Buffa topping the list with his 8.71% cube improvement. Better yet, 16 out of 68 bettered or met their previous database best for 15km, though the top scorers in this list have ridden only a couple of well separated time trials so far.

These results were posted on the OBC site circa 23:00 on 2012-Jul-26 and are available here for your added pleasure and analysis.

(Lest complaints about me just lazily sucking in the results surface, I wish to make it perfectly clear that I would look after the data entry. Historically, for the decade starting in 1998 I had all of the WTT series up within a few hours of the event, and likewise for the OTT series from 1999-2002 and again in 2006. More recently, I have written web software which can run from the start/finish lines to register, seed, calculate rider times from elapsed times and database the results immediately. The OBC Board however, not only won't let me volunteer here, but strangely enough they actually expelled me from the OBC for donating this time trial web site to you !)




 
 

BESTS?
 
Y 1 Gee, Jon & Lacasse, Jeremie & Trafford, Brian OBC 19:20 46.552 1/69 TTT 1/1  
Y 2 Gee, Derek  OBC 19:40 45.763 2/69 U17M 1/2 1.0308
3 Proulx, Steve  CYC 19:57 45.113 3/69 U50M 1/16 0.9532
4 Gagnon, Alexandre  OBC 20:28 43.974 4/69 U30M 1/4 0.9902
5 Tremblay, Stephane --- 20:52 43.131 5/69 U50M 2/16 1.0711
6 Lees, Andrew NTF 20:55 43.028 6/69 U50M 3/16 0.9952
7 Christie, Greg  OBC/RWR 20:58 42.925 7/69 U60M 1/17 1.0143
Katz, Joel  OBC/RWR 20:58 42.925 7/69 U60M 1/17 0.9301
Mullington, Chris WQW 20:58 42.925 7/69 U60M 1/17 0.9881
10 Budgell, Glen  OBC 21:06 42.654 10/69 U60M 4/17 0.9216
11 Robitaille, Brian  OBC 21:12 42.453 11/69 U50M 4/16 1.0552
12 Burge, Craig  CYC 21:22 42.122 12/69 U60M 5/17 1.0165
13 Dorego, Jean-Louis OBC 21:39 41.570 13/69 U70M 1/6 1.0092
14 Pellerin, Jean-Philippe OBC 21:41 41.507 14/69 U30M 2/4 0.9413
15 Loeffelholz, Hans  NTF 21:48 41.284 15/69 U50M 5/16 1.0278
16 Bellemare, Normand OBC 21:51 41.190 16/69 U60M 6/17 1.0092
17 Brassard, David OCA 21:52 41.159 17/69 U40M 1/6 1.0138
Till, Michael --- 21:52 41.159 17/69 U60M 7/17 0.9594
19 Moerman, Bram  OBC 21:55 41.065 19/69 U70M 2/6 1.0230
20 Dow, Morgan CLG 22:00 40.909 20/69 U30M 3/4 1.0579
21 Sargent, Larry OBC 22:04 40.785 21/69 U60M 8/17 1.0228
22 Lavoie, Marcel  WQW 22:10 40.602 22/69 U50M 6/16  
23 Tregunno, Peter  OBC 22:11 40.571 23/69 U40M 2/6 0.8894
24 Basu, Ben  OBC 22:25 40.149 24/69 U50M 7/16 1.0270
25 Konov, Sergei OBC 22:27 40.089 25/69 U40M 3/6 0.9604
26 Manjikian, Sevak OBC 22:29 40.030 26/69 U50M 8/16 0.9978
27 Hess, Detlef OBC 22:30 40.000 27/69 U60M 9/17 1.0658
Hicks, Bob  OBC 22:30 40.000 27/69 U70M 3/6 0.9846
29 Mellon, Alyssa  CYC 22:31 39.970 29/69 U40F 1/2 1.0519
30 Morvan, Jacques  OBC 22:32 39.941 30/69 U70M 4/6 0.9956
31 Davis, Doug --- 22:34 39.882 31/69 U50M 9/16 0.9737
32 Drouin, Marcel OBC 22:38 39.764 32/69 U50M 10/16 1.0380
33 Grace, Darrin  EUR 22:41 39.677 33/69 U50M 11/16 0.9738
34 Nesdoly, Nina  OBC 22:46 39.531 34/69 U30F 1/2 1.0000
35 Dallaire, Alexis --- 22:49 39.445 35/69 U40M 4/6  
36 Lacopia, Tony  FC 23:00 39.130 36/69 U30M 4/4 1.0621
37 Buffa, Alex  OBC 23:01 39.102 37/69 U50M 12/16 1.0871
38 Diotte, Daniel OBC 23:11 38.821 38/69 U50M 13/16 0.8429
39 Marshall, Gregory EUR 23:16 38.682 39/69 U50M 14/16 0.9723
40 Charlton, Christopher --- 23:18 38.627 40/69 U60M 10/17 0.9957
Deschamps, Martin WQW 23:18 38.627 40/69 U40M 5/6 0.9494
42 Xie, Bailin  OBC 23:20 38.571 42/69 U17F 1/2 0.9453
43 Yaeger, Dave  OBC 23:21 38.544 43/69 U60M 11/17 0.9599
44 Deavy, Carol  OBC 23:23 38.489 44/69 U50F 1/3 1.0129
45 Kerckhoff, Hermann  ABC 23:25 38.434 45/69 U80M 1/2 1.0086
46 Bernard, Audrey --- 23:28 38.352 46/69 U30F 2/2 1.0742
47 Carrier, Damien --- 23:40 38.028 47/69 U50M 15/16 0.9604
48 King, Dustin --- 23:53 37.683 48/69 U17M 2/2 1.0317
49 Yardley, Jane  OBC 24:06 37.344 49/69 U40F 2/2 1.0442
50 Gilchrist, Ryan  OBC 24:07 37.319 50/69 U50M 16/16 0.9672
Johnson, Byron  OBC 24:07 37.319 50/69 U70M 5/6 0.9652
52 Déry, Nicolas  OBC 24:13 37.164 52/69 U40M 6/6 0.9512
53 Meyer, Lisa  OBC 24:17 37.062 53/69 U60F 1/4 0.9533
54 Appotive, Eric FC 24:28 36.785 54/69 U60M 12/17 0.9777
Imbrogno, Giorgio  OBC 24:28 36.785 54/69 U70M 6/6 0.9380
56 Hall, David  OBC 24:38 36.536 56/69 U60M 13/17 0.9778
57 Dore, Morley OBC 24:49 36.266 57/69 U80M 2/2 0.9311
58 Pavelich, John OBC 24:51 36.217 58/69 U60M 14/17 0.8859
59 Dionne, Suzanne  --- 25:09 35.785 59/69 U60F 2/4 1.0526
60 Liechti, Hans-Peter OBC 25:11 35.738 60/69 U60M 15/17 0.9842
61 Janusauskas, Vytas  OBC 25:12 35.714 61/69 U60M 16/17 0.9960
62 Burton, Myriam  OBC 25:23 35.456 62/69 U17F 2/2 1.0178
63 Douglas, Mark  OBC 25:29 35.317 63/69 U60M 17/17 1.0539
64 Slaunwhite, Patricia  OBC 26:12 34.351 64/69 U50F 2/3 0.9848
65 Portelance, Marianne OBC 26:20 34.177 65/69 U19F 1/1 0.9259
66 McInnis, Celia  ABC/CYF 26:35 33.856 66/69 U60F 3/4 0.9036
67 Ajersch, Mary  OBC 26:43 33.687 67/69 U80F 1/1 1.0475
68 Levi, Cheryl OBC 26:45 33.645 68/69 U60F 4/4 0.8937
69 Caron, Lili  OBC 31:59 28.140 69/69 U50F 3/3 1.1509
 
Average Speed of all of the above 69 finishes (1035km in 26:38:17):38.854
>>>Average of the Average Speeds for these 69 finishes39.125<<<
 

The number of data records shown above is 69
The server processing of your query took: 1 wallclock secs ( 0.03 usr + 0.02 sys = 0.05 CPU)

Thanks to our Helpers: Michel Bernier, Leona Gray, Alex McKnight, Jess Raymond, Stephanie Rees, Peter Tregunno.

     


Apr 6 (Good Friday) Apr 16 (10km) Apr 23 (10km) (Canceled - Cold Drizzle) Apr 30 (10km)
May 1 (10km) May 3 May 7 (10km) May 8 (10km) May 10 May 14 (10km) May 15 May 15 (10km) May 17 May 22 May 22 (10km) May 24 May 28 (10km) May 29 May 29 (10km) May 31
Jun 3 (40km) Jun 4 (10km) Jun 5 Jun 5 Jun 7 Jun 11 (10km) Jun 12 Jun 12 Jun 14 Jun 18 (10km) Jun 19 Jun 19 Jun 21 Jun 25 (10km) Jun 26 Jun 26 Jun 28
Jul 2 (10km) Jul 3 Jul 3 Jul 5 Jul 8 (40km) Jul 9 Jul 10 Jul 10 Jul 12 Jul 16 Jul 17 Jul 17 Jul 19 Jul 22 (40km) Jul 23 (Cancelled - Thunderstorm) Jul 24 Jul 24
  Jul 26  
Jul 30 Jul 31 Jul 31
Aug 2 Aug 5 (40km) Aug 6 Aug 7 Aug 7 Aug 9 Aug 12 (40km) Aug 13 Aug 14 Aug 14 Aug 16 Aug 20 Aug 21 Aug 21 Aug 23 Aug 28 Aug 28 (Invitational) Aug 30
Sep 2 (40km) Sep 4 Sep 6 Sep 9 (40km) Sep 11 Sep 13 Sep 18 Sep 25

OTT Rankings
3 Best Speeds     3 Best Speeds by category
WTT Rankings for All Participants
4 Best Speeds (≥4 WTT, ≤1 10km)     4 Best Speeds (≥4 WTT, ≤1 10km) by category
OTT Best Three 15km Rankings
Overall     by category     age-Hcap Female   age-Hcap Male
[OWA]TT BAR Ranking
Overall     by category     Rider "Consistency-Graph"
ABC BAR Ranking
Overall     by category     Rider "Consistency-Graph"
Other years
TT Calculator All TT People All TT events
VVV Home
CKAP GOLD MEDAL
Other Links

Please send your comments and suggestions to: Celia McInnis
Copyright © 1998-2021 Celia McInnis. All rights reserved. Links are welcomed.